createdAt,value
2018-03-06T00:00:00.553Z,3.70
2018-03-06T00:01:00.525Z,3.67
2018-03-06T00:02:00.485Z,3.62
2018-03-06T00:03:00.453Z,3.54
2018-03-06T00:04:00.433Z,3.63
2018-03-06T00:05:00.396Z,3.62
2018-03-06T00:06:00.362Z,3.60
2018-03-06T00:07:00.582Z,3.60
2018-03-06T00:08:00.300Z,3.70
2018-03-06T00:09:00.271Z,3.56
2018-03-06T00:10:00.280Z,3.64
2018-03-06T00:11:00.210Z,3.70
2018-03-06T00:12:00.180Z,3.62
2018-03-06T00:13:00.149Z,3.62
2018-03-06T00:14:00.120Z,3.60
2018-03-06T00:15:00.083Z,3.39
2018-03-06T00:16:00.050Z,3.46
2018-03-06T00:17:00.023Z,3.42
2018-03-06T00:17:59.987Z,3.45
2018-03-06T00:19:00.208Z,3.46
2018-03-06T00:19:59.928Z,3.34
2018-03-06T00:20:59.899Z,3.37
2018-03-06T00:21:59.859Z,3.31
2018-03-06T00:22:59.834Z,3.34
2018-03-06T00:23:59.795Z,3.34
2018-03-06T00:24:59.772Z,3.31
2018-03-06T00:25:59.740Z,3.26
2018-03-06T00:26:59.706Z,3.19
2018-03-06T00:27:59.684Z,3.26
2018-03-06T00:28:59.642Z,3.26
2018-03-06T00:29:59.616Z,3.30
2018-03-06T00:30:59.882Z,3.26
2018-03-06T00:31:59.555Z,3.31
2018-03-06T00:32:59.523Z,3.31
2018-03-06T00:33:59.486Z,3.39
2018-03-06T00:34:59.456Z,3.28
2018-03-06T00:35:59.423Z,3.44
2018-03-06T00:36:59.430Z,3.63
2018-03-06T00:37:59.390Z,3.60
2018-03-06T00:38:59.329Z,3.64
2018-03-06T00:39:59.327Z,3.53
2018-03-06T00:40:59.266Z,3.54
2018-03-06T00:41:59.240Z,3.45
2018-03-06T00:42:59.210Z,3.45
2018-03-06T00:43:59.175Z,3.39
2018-03-06T00:44:59.146Z,3.28
2018-03-06T00:45:59.115Z,3.28
2018-03-06T00:46:59.087Z,3.28
2018-03-06T00:47:59.052Z,3.17
2018-03-06T00:48:59.018Z,3.16
2018-03-06T00:49:58.984Z,3.13
2018-03-06T00:50:58.962Z,3.17
2018-03-06T00:51:58.922Z,3.12
2018-03-06T00:52:58.896Z,3.12
2018-03-06T00:53:58.856Z,3.04
2018-03-06T00:54:58.833Z,3.10
2018-03-06T00:55:58.798Z,3.02
2018-03-06T00:56:58.767Z,2.94
2018-03-06T00:57:58.742Z,2.94
2018-03-06T00:58:58.704Z,2.92
2018-03-06T00:59:58.976Z,2.95
2018-03-06T01:00:58.639Z,2.99
2018-03-06T01:01:58.610Z,2.94
2018-03-06T01:02:58.581Z,2.95
2018-03-06T01:03:58.554Z,2.94
2018-03-06T01:04:58.817Z,2.95
2018-03-06T01:05:58.479Z,2.97
2018-03-06T01:06:58.450Z,3.07
2018-03-06T01:07:58.420Z,3.16
2018-03-06T01:08:58.389Z,3.12
2018-03-06T01:09:58.357Z,2.92
2018-03-06T01:10:58.324Z,2.98
2018-03-06T01:11:58.292Z,2.98
2018-03-06T01:12:58.261Z,3.13
2018-03-06T01:13:58.233Z,3.01
2018-03-06T01:14:58.199Z,3.02
2018-03-06T01:15:58.165Z,3.04
2018-03-06T01:16:58.134Z,2.98
2018-03-06T01:17:58.108Z,2.99
2018-03-06T01:18:58.070Z,2.92
2018-03-06T01:19:58.050Z,2.97
2018-03-06T01:20:58.012Z,2.94
2018-03-06T01:21:57.983Z,2.94
2018-03-06T01:22:58.196Z,2.90
2018-03-06T01:23:57.914Z,2.80
2018-03-06T01:24:57.885Z,2.90
2018-03-06T01:25:57.847Z,2.95
2018-03-06T01:26:57.817Z,2.98
2018-03-06T01:27:57.791Z,2.99
2018-03-06T01:28:57.754Z,2.99
2018-03-06T01:29:57.728Z,2.80
2018-03-06T01:30:57.693Z,2.95
2018-03-06T01:31:57.663Z,2.95
2018-03-06T01:32:57.634Z,2.81
2018-03-06T01:33:57.600Z,2.90
2018-03-06T01:34:57.566Z,2.94
2018-03-06T01:35:57.536Z,2.92
2018-03-06T01:36:57.504Z,2.87
2018-03-06T01:37:57.470Z,2.95
2018-03-06T01:38:57.434Z,2.95
2018-03-06T01:39:57.411Z,2.81
2018-03-06T01:40:57.383Z,2.89
2018-03-06T01:41:57.347Z,2.81
2018-03-06T01:42:57.311Z,2.73
2018-03-06T01:43:57.306Z,2.74
2018-03-06T01:44:57.248Z,2.73
2018-03-06T01:45:57.516Z,2.62
2018-03-06T01:46:57.187Z,2.63
2018-03-06T01:47:57.166Z,2.56
2018-03-06T01:48:57.125Z,2.61
2018-03-06T01:49:57.090Z,2.71
2018-03-06T01:50:57.052Z,2.66
2018-03-06T01:51:57.024Z,2.65
2018-03-06T01:52:56.997Z,2.77
2018-03-06T01:53:56.965Z,2.61
2018-03-06T01:54:56.936Z,2.63
2018-03-06T01:55:56.898Z,2.63
2018-03-06T01:56:56.864Z,2.53
2018-03-06T01:57:57.087Z,2.53
2018-03-06T01:58:56.808Z,2.53
2018-03-06T01:59:56.812Z,2.37
2018-03-06T02:00:56.745Z,2.44
2018-03-06T02:01:56.715Z,2.38
2018-03-06T02:02:56.679Z,2.40
2018-03-06T02:03:56.652Z,2.37
2018-03-06T02:04:56.624Z,2.41
2018-03-06T02:05:56.578Z,2.41
2018-03-06T02:06:56.547Z,2.33
2018-03-06T02:07:56.521Z,2.48
2018-03-06T02:08:56.486Z,2.51
2018-03-06T02:09:56.455Z,2.58
2018-03-06T02:10:56.431Z,2.50
2018-03-06T02:11:56.386Z,2.38
2018-03-06T02:12:56.361Z,2.37
2018-03-06T02:13:56.333Z,2.32
2018-03-06T02:14:56.299Z,2.26
2018-03-06T02:15:56.263Z,2.23
2018-03-06T02:16:56.237Z,2.29
2018-03-06T02:17:56.195Z,2.25
2018-03-06T02:18:56.168Z,2.30
2018-03-06T02:19:56.133Z,2.33
2018-03-06T02:20:56.102Z,2.43
2018-03-06T02:21:56.369Z,2.36
2018-03-06T02:22:56.033Z,2.40
2018-03-06T02:23:56.004Z,2.30
2018-03-06T02:24:55.975Z,2.33
2018-03-06T02:25:55.944Z,2.37
2018-03-06T02:26:55.912Z,2.30
2018-03-06T02:27:55.874Z,2.30
2018-03-06T02:28:55.845Z,2.29
2018-03-06T02:29:55.819Z,2.38
2018-03-06T02:30:55.783Z,2.37
2018-03-06T02:31:55.752Z,2.41
2018-03-06T02:32:55.724Z,2.41
2018-03-06T02:33:55.693Z,2.47
2018-03-06T02:34:55.654Z,2.38
2018-03-06T02:35:55.624Z,2.26
2018-03-06T02:36:55.593Z,2.38
2018-03-06T02:37:55.553Z,2.29
2018-03-06T02:38:55.524Z,2.43
2018-03-06T02:39:55.497Z,2.37
2018-03-06T02:40:55.457Z,2.40
2018-03-06T02:41:55.430Z,2.40
2018-03-06T02:42:55.395Z,2.37
2018-03-06T02:43:55.365Z,2.40
2018-03-06T02:44:55.581Z,2.45
2018-03-06T02:45:55.303Z,2.43
2018-03-06T02:46:55.273Z,2.32
2018-03-06T02:47:55.237Z,2.47
2018-03-06T02:48:55.216Z,2.38
2018-03-06T02:49:55.172Z,2.38
2018-03-06T02:50:55.140Z,2.45
2018-03-06T02:51:55.112Z,2.40
2018-03-06T02:52:55.078Z,2.29
2018-03-06T02:53:55.043Z,2.29
2018-03-06T02:54:55.012Z,2.30
2018-03-06T02:55:54.975Z,2.26
2018-03-06T02:56:55.194Z,2.26
2018-03-06T02:57:54.918Z,2.33
2018-03-06T02:58:54.885Z,2.29
2018-03-06T02:59:54.847Z,2.26
2018-03-06T03:00:54.823Z,2.25
2018-03-06T03:01:54.791Z,2.36
2018-03-06T03:02:54.757Z,2.33
2018-03-06T03:03:54.730Z,2.27
2018-03-06T03:04:54.689Z,2.29
2018-03-06T03:05:54.654Z,2.33
2018-03-06T03:06:54.633Z,2.29
2018-03-06T03:07:54.593Z,2.23
2018-03-06T03:08:54.567Z,2.20
2018-03-06T03:09:54.527Z,2.25
2018-03-06T03:10:54.502Z,2.18
2018-03-06T03:11:54.464Z,2.20
2018-03-06T03:12:54.733Z,2.30
2018-03-06T03:13:54.402Z,2.25
2018-03-06T03:14:54.372Z,2.22
2018-03-06T03:15:54.344Z,2.18
2018-03-06T03:16:54.300Z,2.25
2018-03-06T03:17:54.275Z,2.15
2018-03-06T03:18:54.243Z,2.08
2018-03-06T03:19:54.211Z,2.02
2018-03-06T03:20:54.188Z,2.18
2018-03-06T03:21:54.142Z,2.11
2018-03-06T03:22:54.112Z,2.25
2018-03-06T03:23:54.083Z,2.20
2018-03-06T03:24:54.057Z,2.20
2018-03-06T03:25:54.018Z,2.14
2018-03-06T03:26:53.981Z,2.14
2018-03-06T03:27:53.949Z,2.32
2018-03-06T03:28:53.921Z,2.15
2018-03-06T03:29:54.188Z,2.29
2018-03-06T03:30:53.858Z,2.19
2018-03-06T03:31:53.827Z,2.25
2018-03-06T03:32:53.791Z,2.30
2018-03-06T03:33:53.767Z,2.22
2018-03-06T03:34:53.736Z,2.20
2018-03-06T03:35:53.697Z,2.18
2018-03-06T03:36:53.677Z,2.27
2018-03-06T03:37:53.626Z,2.29
2018-03-06T03:38:53.602Z,2.19
2018-03-06T03:39:53.570Z,2.15
2018-03-06T03:40:53.535Z,2.12
2018-03-06T03:41:53.502Z,2.12
2018-03-06T03:42:53.470Z,2.22
2018-03-06T03:43:53.432Z,2.11
2018-03-06T03:44:53.401Z,2.19
2018-03-06T03:45:53.379Z,2.05
2018-03-06T03:46:53.346Z,2.07
2018-03-06T03:47:53.608Z,2.04
2018-03-06T03:48:53.277Z,2.00
2018-03-06T03:49:53.248Z,1.98
2018-03-06T03:50:53.216Z,1.92
2018-03-06T03:51:53.181Z,1.89
2018-03-06T03:52:53.147Z,1.81
2018-03-06T03:53:53.112Z,1.77
2018-03-06T03:54:53.079Z,1.89
2018-03-06T03:55:53.047Z,1.93
2018-03-06T03:56:53.017Z,1.88
2018-03-06T03:57:52.988Z,1.82
2018-03-06T03:58:52.956Z,1.70
2018-03-06T03:59:52.922Z,1.61
2018-03-06T04:00:52.893Z,1.56
2018-03-06T04:01:52.854Z,1.63
2018-03-06T04:02:52.821Z,1.57
2018-03-06T04:03:52.794Z,1.57
2018-03-06T04:04:52.761Z,1.57
2018-03-06T04:05:52.985Z,1.54
2018-03-06T04:06:52.695Z,1.53
2018-03-06T04:07:52.667Z,1.49
2018-03-06T04:08:52.623Z,1.34
2018-03-06T04:09:52.593Z,1.28
2018-03-06T04:10:52.570Z,1.36
2018-03-06T04:11:52.531Z,1.32
2018-03-06T04:12:52.493Z,1.46
2018-03-06T04:13:52.464Z,1.56
2018-03-06T04:14:52.431Z,1.56
2018-03-06T04:15:52.402Z,1.64
2018-03-06T04:16:52.376Z,1.61
2018-03-06T04:17:52.335Z,1.54
2018-03-06T04:18:52.299Z,1.47
2018-03-06T04:19:52.269Z,1.49
2018-03-06T04:20:52.236Z,1.46
2018-03-06T04:21:52.209Z,1.42
2018-03-06T04:22:52.176Z,1.43
2018-03-06T04:23:52.150Z,1.42
2018-03-06T04:24:52.108Z,1.54
2018-03-06T04:25:52.086Z,1.60
2018-03-06T04:26:52.051Z,1.53
2018-03-06T04:27:52.006Z,1.46
2018-03-06T04:28:51.974Z,1.46
2018-03-06T04:29:52.247Z,1.49
2018-03-06T04:30:51.922Z,1.54
2018-03-06T04:31:51.876Z,1.49
2018-03-06T04:32:51.848Z,1.47
2018-03-06T04:33:51.813Z,1.38
2018-03-06T04:34:51.780Z,1.35
2018-03-06T04:35:52.047Z,1.21
2018-03-06T04:36:51.719Z,1.21
2018-03-06T04:37:51.682Z,1.25
2018-03-06T04:38:51.649Z,1.26
2018-03-06T04:39:51.612Z,1.21
2018-03-06T04:40:51.584Z,1.18
2018-03-06T04:41:51.563Z,1.16
2018-03-06T04:42:51.526Z,1.17
2018-03-06T04:43:51.487Z,1.16
2018-03-06T04:44:51.451Z,1.16
2018-03-06T04:45:51.420Z,1.18
2018-03-06T04:46:51.392Z,1.10
2018-03-06T04:47:51.657Z,1.08
2018-03-06T04:48:51.327Z,1.20
2018-03-06T04:49:51.288Z,1.04
2018-03-06T04:50:51.267Z,1.06
2018-03-06T04:51:51.221Z,0.96
2018-03-06T04:52:51.197Z,0.99
2018-03-06T04:53:51.152Z,0.98
2018-03-06T04:54:51.120Z,1.00
2018-03-06T04:55:51.093Z,0.90
2018-03-06T04:56:51.057Z,0.82
2018-03-06T04:57:51.031Z,0.82
2018-03-06T04:58:51.003Z,0.89
2018-03-06T04:59:50.955Z,0.82
2018-03-06T05:00:50.926Z,0.75
2018-03-06T05:01:50.892Z,0.75
2018-03-06T05:02:50.865Z,0.89
2018-03-06T05:03:50.834Z,0.88
2018-03-06T05:04:50.796Z,0.92
2018-03-06T05:05:51.063Z,0.78
2018-03-06T05:06:50.725Z,0.78
2018-03-06T05:07:50.697Z,0.81
2018-03-06T05:08:50.668Z,0.75
2018-03-06T05:09:50.624Z,0.72
2018-03-06T05:10:50.594Z,0.75
2018-03-06T05:11:50.570Z,0.72
2018-03-06T05:12:50.529Z,0.74
2018-03-06T05:13:50.505Z,0.70
2018-03-06T05:14:50.466Z,0.70
2018-03-06T05:15:50.427Z,0.70
2018-03-06T05:16:50.649Z,0.68
2018-03-06T05:17:50.365Z,0.62
2018-03-06T05:18:50.343Z,0.68
2018-03-06T05:19:50.298Z,0.71
2018-03-06T05:20:50.267Z,0.64
2018-03-06T05:21:50.232Z,0.70
2018-03-06T05:22:50.202Z,0.67
2018-03-06T05:23:50.174Z,0.63
2018-03-06T05:24:50.142Z,0.53
2018-03-06T05:25:50.098Z,0.59
2018-03-06T05:26:50.104Z,0.59
2018-03-06T05:27:50.028Z,0.62
2018-03-06T05:28:50.000Z,0.56
2018-03-06T05:29:49.965Z,0.56
2018-03-06T05:30:49.934Z,0.56
2018-03-06T05:31:49.898Z,0.63
2018-03-06T05:32:49.862Z,0.51
2018-03-06T05:33:49.836Z,0.56
2018-03-06T05:34:49.805Z,0.52
2018-03-06T05:35:49.767Z,0.62
2018-03-06T05:36:49.738Z,0.68
2018-03-06T05:37:49.701Z,0.71
2018-03-06T05:38:49.667Z,0.59
2018-03-06T05:39:49.634Z,0.70
2018-03-06T05:40:49.612Z,0.68
2018-03-06T05:41:49.566Z,0.67
2018-03-06T05:42:49.533Z,0.71
2018-03-06T05:43:49.503Z,0.72
2018-03-06T05:44:49.464Z,0.71
2018-03-06T05:45:49.434Z,0.67
2018-03-06T05:46:49.756Z,0.68
2018-03-06T05:47:49.370Z,0.72
2018-03-06T05:48:49.343Z,0.71
2018-03-06T05:49:49.304Z,0.72
2018-03-06T05:50:49.271Z,0.68
2018-03-06T05:51:49.236Z,0.64
2018-03-06T05:52:49.200Z,0.68
2018-03-06T05:53:49.163Z,0.77
2018-03-06T05:54:49.138Z,0.71
2018-03-06T05:55:49.112Z,0.67
2018-03-06T05:56:49.078Z,0.63
2018-03-06T05:57:49.036Z,0.56
2018-03-06T05:58:49.255Z,0.71
2018-03-06T05:59:48.971Z,0.70
2018-03-06T06:00:48.942Z,0.70
2018-03-06T06:01:48.905Z,0.63
2018-03-06T06:02:48.867Z,0.75
2018-03-06T06:03:48.833Z,0.86
2018-03-06T06:04:48.806Z,0.80
2018-03-06T06:05:48.773Z,0.88
2018-03-06T06:06:48.742Z,0.82
2018-03-06T06:07:48.707Z,0.86
2018-03-06T06:08:48.971Z,0.77
2018-03-06T06:09:48.640Z,0.75
2018-03-06T06:10:48.598Z,0.75
2018-03-06T06:11:48.573Z,0.72
2018-03-06T06:12:48.538Z,0.74
2018-03-06T06:13:48.504Z,0.74
2018-03-06T06:14:48.468Z,0.72
2018-03-06T06:15:48.431Z,0.88
2018-03-06T06:16:48.402Z,0.86
2018-03-06T06:17:48.373Z,0.93
2018-03-06T06:18:48.350Z,1.04
2018-03-06T06:19:48.300Z,0.96
2018-03-06T06:20:48.269Z,1.06
2018-03-06T06:21:48.244Z,1.10
2018-03-06T06:22:48.207Z,1.16
2018-03-06T06:23:48.180Z,1.21
2018-03-06T06:24:48.150Z,1.38
2018-03-06T06:25:48.106Z,1.54
2018-03-06T06:26:48.069Z,1.61
2018-03-06T06:27:48.050Z,1.57
2018-03-06T06:28:48.011Z,1.68
2018-03-06T06:29:47.976Z,1.71
2018-03-06T06:30:47.938Z,1.79
2018-03-06T06:31:47.908Z,1.75
2018-03-06T06:32:47.883Z,1.90
2018-03-06T06:33:47.845Z,1.88
2018-03-06T06:34:47.815Z,1.95
2018-03-06T06:35:47.781Z,2.07
2018-03-06T06:36:47.744Z,2.14
2018-03-06T06:37:47.720Z,2.37
2018-03-06T06:38:47.686Z,2.40
2018-03-06T06:39:47.654Z,2.48
2018-03-06T06:40:47.621Z,2.68
2018-03-06T06:41:47.580Z,2.76
2018-03-06T06:42:47.598Z,2.65
2018-03-06T06:43:47.528Z,2.97
2018-03-06T06:44:47.504Z,2.83
2018-03-06T06:45:47.463Z,2.92
2018-03-06T06:46:47.456Z,2.92
2018-03-06T06:47:47.392Z,2.98
2018-03-06T06:48:47.361Z,3.16
2018-03-06T06:49:47.342Z,3.04
2018-03-06T06:50:47.604Z,3.23
2018-03-06T06:51:47.270Z,3.17
2018-03-06T06:52:47.231Z,3.31
2018-03-06T06:53:47.216Z,3.30
2018-03-06T06:54:47.172Z,3.45
2018-03-06T06:55:47.152Z,3.60
2018-03-06T06:56:47.117Z,3.22
2018-03-06T06:57:47.080Z,3.45
2018-03-06T06:58:47.050Z,3.42
2018-03-06T06:59:47.018Z,3.80
2018-03-06T07:00:47.000Z,3.44
2018-03-06T07:01:46.958Z,3.95
2018-03-06T07:02:46.931Z,4.02
2018-03-06T07:03:46.896Z,3.82
2018-03-06T07:04:46.870Z,3.88
2018-03-06T07:05:46.840Z,3.78
2018-03-06T07:06:46.813Z,3.72
2018-03-06T07:07:46.777Z,4.07
2018-03-06T07:08:46.743Z,4.06
2018-03-06T07:09:46.719Z,4.28
2018-03-06T07:10:46.702Z,4.26
2018-03-06T07:11:46.659Z,4.31
2018-03-06T07:12:46.632Z,4.44
2018-03-06T07:13:46.594Z,4.47
2018-03-06T07:14:46.576Z,4.86
2018-03-06T07:15:46.554Z,4.93
2018-03-06T07:16:46.509Z,4.97
2018-03-06T07:17:46.478Z,5.09
2018-03-06T07:18:46.448Z,4.77
2018-03-06T07:19:46.720Z,4.86
2018-03-06T07:20:46.462Z,4.86
2018-03-06T07:21:46.366Z,4.99
2018-03-06T07:22:46.337Z,5.40
2018-03-06T07:23:46.348Z,5.19
2018-03-06T07:24:46.277Z,5.11
2018-03-06T07:25:46.253Z,5.23
2018-03-06T07:26:46.222Z,5.27
2018-03-06T07:27:46.193Z,5.14
2018-03-06T07:28:46.160Z,5.09
2018-03-06T07:29:46.132Z,5.20
2018-03-06T07:30:46.103Z,5.29
2018-03-06T07:31:46.080Z,5.56
2018-03-06T07:32:46.049Z,5.32
2018-03-06T07:33:46.019Z,5.44
2018-03-06T07:34:45.988Z,5.51
2018-03-06T07:35:45.957Z,5.77
2018-03-06T07:36:45.933Z,5.92
2018-03-06T07:37:45.906Z,5.73
2018-03-06T07:38:45.889Z,5.93
2018-03-06T07:39:45.854Z,5.66
2018-03-06T07:40:45.817Z,5.44
2018-03-06T07:41:45.800Z,5.27
2018-03-06T07:42:45.771Z,5.69
2018-03-06T07:43:46.042Z,6.02
2018-03-06T07:44:45.713Z,5.62
2018-03-06T07:45:45.686Z,6.33
2018-03-06T07:46:45.658Z,6.27
2018-03-06T07:47:45.629Z,6.27
2018-03-06T07:48:45.960Z,6.65
2018-03-06T07:49:45.575Z,6.51
2018-03-06T07:50:45.545Z,6.13
2018-03-06T07:51:45.522Z,6.08
2018-03-06T07:52:45.495Z,6.27
2018-03-06T07:53:45.477Z,6.06
2018-03-06T07:54:45.443Z,6.03
2018-03-06T07:55:45.409Z,6.36
2018-03-06T07:56:45.390Z,6.27
2018-03-06T07:57:45.361Z,6.16
2018-03-06T07:58:45.342Z,6.01
2018-03-06T07:59:45.308Z,6.05
2018-03-06T08:00:45.284Z,6.35
2018-03-06T08:01:45.250Z,6.05
2018-03-06T08:02:45.223Z,6.01
2018-03-06T08:03:45.200Z,6.39
2018-03-06T08:04:45.174Z,6.33
2018-03-06T08:05:45.146Z,6.33
2018-03-06T08:06:45.118Z,6.45
2018-03-06T08:07:45.100Z,6.50
2018-03-06T08:08:45.064Z,6.28
2018-03-06T08:09:45.046Z,6.82
2018-03-06T08:10:45.021Z,6.48
2018-03-06T08:11:44.990Z,6.35
2018-03-06T08:12:45.268Z,6.48
2018-03-06T08:13:44.929Z,6.38
2018-03-06T08:14:44.937Z,6.45
2018-03-06T08:15:44.881Z,6.57
2018-03-06T08:16:44.853Z,6.96
2018-03-06T08:17:44.827Z,6.55
2018-03-06T08:18:44.806Z,5.95
2018-03-06T08:19:44.770Z,6.03
2018-03-06T08:20:44.752Z,5.66
2018-03-06T08:21:44.733Z,5.96
2018-03-06T08:22:44.705Z,6.54
2018-03-06T08:23:44.670Z,6.73
2018-03-06T08:24:44.653Z,7.34
2018-03-06T08:25:44.616Z,7.27
2018-03-06T08:26:44.592Z,7.05
2018-03-06T08:27:44.570Z,6.90
2018-03-06T08:28:44.543Z,6.63
2018-03-06T08:29:44.824Z,6.53
2018-03-06T08:30:44.489Z,6.19
2018-03-06T08:31:44.462Z,6.79
2018-03-06T08:32:44.439Z,6.83
2018-03-06T08:33:44.411Z,6.76
2018-03-06T08:34:44.381Z,6.99
2018-03-06T08:35:44.355Z,7.00
2018-03-06T08:36:44.335Z,6.89
2018-03-06T08:37:44.307Z,7.05
2018-03-06T08:38:44.288Z,7.01
2018-03-06T08:39:44.262Z,7.12
2018-03-06T08:40:44.235Z,7.08
2018-03-06T08:41:44.201Z,7.21
2018-03-06T08:42:44.176Z,6.91
2018-03-06T08:43:44.162Z,6.39
2018-03-06T08:44:44.130Z,6.48
2018-03-06T08:45:44.107Z,6.17
2018-03-06T08:46:44.078Z,6.19
2018-03-06T08:47:44.051Z,6.03
2018-03-06T08:48:44.036Z,6.38
2018-03-06T08:49:44.001Z,6.25
2018-03-06T08:50:43.979Z,6.27
2018-03-06T08:51:43.944Z,6.45
2018-03-06T08:52:43.925Z,6.79
2018-03-06T08:53:43.904Z,6.54
2018-03-06T08:54:43.873Z,6.48
2018-03-06T08:55:43.847Z,6.58
2018-03-06T08:56:43.823Z,6.90
2018-03-06T08:57:43.827Z,6.82
2018-03-06T08:58:43.777Z,7.24
2018-03-06T08:59:43.747Z,7.32
2018-03-06T09:00:43.721Z,7.37
2018-03-06T09:01:43.699Z,6.87
2018-03-06T09:02:43.671Z,6.86
2018-03-06T09:03:43.638Z,7.18
2018-03-06T09:04:43.919Z,7.12
2018-03-06T09:05:43.593Z,7.24
2018-03-06T09:06:43.575Z,7.44
2018-03-06T09:07:43.541Z,7.44
2018-03-06T09:08:43.526Z,7.58
2018-03-06T09:09:43.497Z,7.57
2018-03-06T09:10:43.720Z,7.63
2018-03-06T09:11:43.441Z,7.15
2018-03-06T09:12:43.418Z,7.42
2018-03-06T09:13:43.394Z,7.77
2018-03-06T09:14:43.364Z,7.36
2018-03-06T09:15:43.351Z,7.15
2018-03-06T09:16:43.325Z,7.54
2018-03-06T09:17:43.293Z,7.76
2018-03-06T09:18:43.271Z,7.63
2018-03-06T09:19:43.252Z,7.51
2018-03-06T09:20:43.221Z,7.54
2018-03-06T09:21:43.205Z,7.63
2018-03-06T09:22:43.179Z,7.69
2018-03-06T09:23:43.165Z,8.21
2018-03-06T09:24:43.125Z,8.39
2018-03-06T09:25:43.101Z,8.12
2018-03-06T09:26:43.083Z,8.09
2018-03-06T09:27:43.057Z,8.47
2018-03-06T09:28:43.026Z,8.83
2018-03-06T09:29:42.997Z,8.42
2018-03-06T09:30:43.012Z,8.58
2018-03-06T09:31:42.957Z,8.64
2018-03-06T09:32:42.934Z,8.50
2018-03-06T09:33:42.930Z,8.46
2018-03-06T09:34:42.877Z,8.18
2018-03-06T09:35:42.857Z,8.22
2018-03-06T09:36:42.833Z,8.27
2018-03-06T09:37:42.814Z,8.63
2018-03-06T09:38:42.794Z,8.67
2018-03-06T09:39:42.769Z,8.89
2018-03-06T09:40:42.745Z,8.46
2018-03-06T09:41:42.722Z,8.52
2018-03-06T09:42:42.693Z,8.25
2018-03-06T09:43:42.684Z,8.47
2018-03-06T09:44:42.647Z,8.55
2018-03-06T09:45:42.617Z,8.22
2018-03-06T09:46:42.595Z,8.31
2018-03-06T09:47:42.580Z,8.45
2018-03-06T09:48:42.551Z,8.58
2018-03-06T09:49:42.531Z,8.86
2018-03-06T09:50:42.525Z,9.30
2018-03-06T09:51:42.481Z,9.37
2018-03-06T09:52:42.454Z,9.22
2018-03-06T09:53:42.434Z,9.01
2018-03-06T09:54:42.414Z,9.15
2018-03-06T09:55:42.390Z,9.00
2018-03-06T09:56:42.367Z,9.13
2018-03-06T09:57:42.342Z,9.19
2018-03-06T09:58:42.326Z,9.13
2018-03-06T09:59:42.302Z,9.45
2018-03-06T10:00:42.279Z,9.10
2018-03-06T10:01:42.254Z,9.27
2018-03-06T10:02:42.231Z,9.35
2018-03-06T10:03:42.206Z,9.52
2018-03-06T10:04:42.438Z,9.56
2018-03-06T10:05:42.158Z,9.30
2018-03-06T10:06:42.131Z,9.44
2018-03-06T10:07:42.114Z,9.55
2018-03-06T10:08:42.090Z,9.20
2018-03-06T10:09:42.073Z,9.15
2018-03-06T10:10:42.046Z,9.35
2018-03-06T10:11:42.028Z,8.96
2018-03-06T10:12:42.004Z,8.97
2018-03-06T10:13:41.981Z,9.32
2018-03-06T10:14:41.967Z,8.75
2018-03-06T10:15:41.943Z,8.76
2018-03-06T10:16:41.921Z,8.88
2018-03-06T10:17:41.889Z,9.38
2018-03-06T10:18:41.870Z,8.94
2018-03-06T10:19:41.839Z,9.19
2018-03-06T10:20:41.819Z,9.03
2018-03-06T10:21:41.806Z,8.63
2018-03-06T10:22:41.775Z,8.75
2018-03-06T10:23:41.750Z,8.04
2018-03-06T10:24:41.736Z,8.03
2018-03-06T10:25:41.710Z,8.09
2018-03-06T10:26:41.691Z,8.10
2018-03-06T10:27:41.670Z,8.45
2018-03-06T10:28:41.638Z,8.60
2018-03-06T10:29:41.616Z,8.85
2018-03-06T10:30:41.589Z,8.94
2018-03-06T10:31:41.566Z,9.19
2018-03-06T10:32:41.550Z,8.78
2018-03-06T10:33:41.531Z,9.37
2018-03-06T10:34:41.509Z,9.45
2018-03-06T10:35:41.479Z,9.68
2018-03-06T10:36:41.461Z,9.38
2018-03-06T10:37:41.433Z,9.55
2018-03-06T10:38:41.679Z,9.20
2018-03-06T10:39:41.390Z,9.13
2018-03-06T10:40:41.375Z,9.35
2018-03-06T10:41:41.338Z,9.49
2018-03-06T10:42:41.324Z,10.01
2018-03-06T10:43:41.303Z,9.60
2018-03-06T10:44:41.278Z,9.93
2018-03-06T10:45:41.253Z,9.92
2018-03-06T10:46:41.232Z,10.02
2018-03-06T10:47:41.213Z,9.78
2018-03-06T10:48:41.185Z,9.37
2018-03-06T10:49:41.185Z,9.74
2018-03-06T10:50:41.145Z,9.27
2018-03-06T10:51:41.116Z,9.32
2018-03-06T10:52:41.095Z,9.56
2018-03-06T10:53:41.079Z,9.81
2018-03-06T10:54:41.056Z,9.35
2018-03-06T10:55:41.030Z,9.42
2018-03-06T10:56:41.009Z,8.97
2018-03-06T10:57:40.981Z,8.97
2018-03-06T10:58:40.964Z,9.15
2018-03-06T10:59:40.950Z,8.55
2018-03-06T11:00:40.925Z,8.98
2018-03-06T11:01:40.895Z,8.85
2018-03-06T11:02:40.876Z,8.88
2018-03-06T11:03:40.858Z,8.97
2018-03-06T11:04:40.829Z,9.12
2018-03-06T11:05:40.816Z,9.22
2018-03-06T11:06:40.786Z,9.03
2018-03-06T11:07:40.776Z,9.20
2018-03-06T11:08:40.743Z,9.22
2018-03-06T11:09:40.719Z,8.94
2018-03-06T11:10:40.696Z,9.55
2018-03-06T11:11:40.678Z,9.77
2018-03-06T11:12:40.656Z,9.13
2018-03-06T11:13:40.626Z,9.26
2018-03-06T11:14:40.605Z,9.34
2018-03-06T11:15:40.595Z,9.73
2018-03-06T11:16:40.561Z,10.28
2018-03-06T11:17:40.533Z,9.89
2018-03-06T11:18:40.524Z,10.62
2018-03-06T11:19:40.502Z,10.72
2018-03-06T11:20:40.477Z,10.57
2018-03-06T11:21:40.459Z,9.89
2018-03-06T11:22:40.442Z,9.85
2018-03-06T11:23:40.405Z,9.60
2018-03-06T11:24:40.412Z,9.83
2018-03-06T11:25:40.369Z,9.99
2018-03-06T11:26:40.342Z,9.20
2018-03-06T11:27:40.334Z,9.78
2018-03-06T11:28:40.311Z,10.06
2018-03-06T11:29:40.282Z,10.32
2018-03-06T11:30:40.280Z,10.35
2018-03-06T11:31:40.249Z,10.39
2018-03-06T11:32:40.253Z,10.13
2018-03-06T11:33:40.187Z,10.32
2018-03-06T11:34:40.183Z,10.11
2018-03-06T11:35:40.154Z,10.04
2018-03-06T11:36:40.130Z,9.85
2018-03-06T11:37:40.368Z,10.11
2018-03-06T11:38:40.097Z,10.04
2018-03-06T11:39:40.066Z,10.49
2018-03-06T11:40:40.053Z,11.51
2018-03-06T11:41:40.034Z,11.01
2018-03-06T11:42:40.006Z,10.52
2018-03-06T11:43:39.997Z,10.69
2018-03-06T11:44:40.004Z,10.04
2018-03-06T11:45:39.936Z,10.24
2018-03-06T11:46:39.927Z,10.16
2018-03-06T11:47:39.908Z,10.35
2018-03-06T11:48:39.880Z,10.52
2018-03-06T11:49:40.163Z,10.46
2018-03-06T11:50:39.834Z,10.11
2018-03-06T11:51:39.814Z,10.35
2018-03-06T11:52:39.792Z,10.10
2018-03-06T11:53:39.773Z,9.77
2018-03-06T11:54:39.763Z,10.13
2018-03-06T11:55:39.728Z,9.95
2018-03-06T11:56:39.726Z,10.06
2018-03-06T11:57:39.697Z,10.18
2018-03-06T11:58:39.673Z,10.35
2018-03-06T11:59:39.961Z,10.78
2018-03-06T12:00:39.634Z,10.69
2018-03-06T12:01:39.610Z,10.94
2018-03-06T12:02:39.587Z,10.78
2018-03-06T12:03:39.575Z,10.94
2018-03-06T12:04:39.547Z,11.53
2018-03-06T12:05:39.778Z,11.08
2018-03-06T12:06:39.507Z,11.16
2018-03-06T12:07:39.489Z,10.99
2018-03-06T12:08:39.465Z,10.87
2018-03-06T12:09:39.454Z,10.99
2018-03-06T12:10:39.430Z,10.84
2018-03-06T12:11:39.707Z,10.72
2018-03-06T12:12:39.388Z,10.75
2018-03-06T12:13:39.370Z,10.88
2018-03-06T12:14:39.354Z,10.93
2018-03-06T12:15:39.330Z,10.75
2018-03-06T12:16:39.309Z,10.49
2018-03-06T12:17:39.285Z,10.32
2018-03-06T12:18:39.283Z,9.96
2018-03-06T12:19:39.253Z,10.16
2018-03-06T12:20:39.232Z,10.25
2018-03-06T12:21:39.207Z,10.10
2018-03-06T12:22:39.190Z,10.16
2018-03-06T12:23:39.174Z,10.39
2018-03-06T12:24:39.145Z,10.06
2018-03-06T12:25:39.127Z,9.73
2018-03-06T12:26:39.121Z,10.01
2018-03-06T12:27:39.089Z,10.49
2018-03-06T12:28:39.073Z,10.68
2018-03-06T12:29:39.045Z,10.68
2018-03-06T12:30:39.030Z,10.57
2018-03-06T12:31:39.014Z,10.66
2018-03-06T12:32:38.988Z,10.28
2018-03-06T12:33:38.986Z,10.38
2018-03-06T12:34:38.949Z,9.92
2018-03-06T12:35:39.180Z,10.02
2018-03-06T12:36:38.904Z,10.57
2018-03-06T12:37:38.895Z,10.14
2018-03-06T12:38:38.872Z,10.06
2018-03-06T12:39:38.848Z,9.70
2018-03-06T12:40:38.835Z,9.91
2018-03-06T12:41:38.804Z,9.68
2018-03-06T12:42:38.782Z,9.38
2018-03-06T12:43:38.765Z,9.68
2018-03-06T12:44:38.746Z,9.89
2018-03-06T12:45:38.719Z,9.80
2018-03-06T12:46:38.701Z,10.04
2018-03-06T12:47:38.682Z,10.20
2018-03-06T12:48:38.687Z,10.35
2018-03-06T12:49:38.655Z,10.28
2018-03-06T12:50:38.635Z,9.99
2018-03-06T12:51:38.595Z,9.74
2018-03-06T12:52:38.576Z,10.07
2018-03-06T12:53:38.571Z,9.83
2018-03-06T12:54:38.560Z,9.58
2018-03-06T12:55:38.513Z,9.68
2018-03-06T12:56:38.498Z,10.04
2018-03-06T12:57:38.469Z,9.74
2018-03-06T12:58:38.449Z,9.80
2018-03-06T12:59:38.433Z,9.71
2018-03-06T13:00:38.412Z,9.99
2018-03-06T13:01:38.388Z,9.70
2018-03-06T13:02:38.364Z,9.74
2018-03-06T13:03:38.340Z,9.40
2018-03-06T13:04:38.321Z,9.70
2018-03-06T13:05:38.556Z,9.53
2018-03-06T13:06:38.286Z,9.35
2018-03-06T13:07:38.260Z,9.53
2018-03-06T13:08:38.239Z,9.65
2018-03-06T13:09:38.216Z,9.71
2018-03-06T13:10:38.198Z,9.96
2018-03-06T13:11:38.173Z,10.10
2018-03-06T13:12:38.164Z,10.06
2018-03-06T13:13:38.139Z,9.96
2018-03-06T13:14:38.107Z,10.07